Nearby METAR Reports

 

KSJC - San Jose, California, USA
Distance from station: NE 14km
Actualización: 21/06/2021 12:53
Despejado
Despejado
 Viento del SE
Viento: SE 11 km/h
Temperatura: 14°C
Rocío: 11°C
Humedad: 82%
Barómetro: 1012.2 hPa
Clouds: Despejado
Visibility: 16 km
2021/06/21 10:53 KSJC 211053Z AUTO 14006KT 10SM CLR 14/11 A2989 RMK AO2 SLP119 T01390111 $
KNUQ - Moffett Nas/Mtn, California, USA
Distance from station: N 14km
Actualización: 21/06/2021 13:15
Cubierto
Cubierto
 Viento del calm
Viento: Calma
Temperatura: 16°C
Rocío: 13°C
Humedad: 83%
Barómetro: 1011.9 hPa
Clouds: Cubierto
Visibility: 16 km
Cloud details: Cubierto 427 m
2021/06/21 11:15 KNUQ 211115Z AUTO 00000KT 10SM OVC014 16/13 A2988 RMK AO2
 
KPAO - Palo Alto, California, USA
Distance from station: NNO 23km
Actualización: 21/06/2021 05:47
NOT Current
Despejado
Despejado
 Viento del N
Viento: N 22 km/h
Temperatura: 17°C
Rocío: 14°C
Humedad: 83%
Barómetro: 1010.8 hPa
Clouds: Despejado
Visibility: 16 km
2021/06/21 03:47 KPAO 210347Z 35012KT 10SM SKC 17/14 A2985 RMK LAST
KRHV - San Jose/Reid, California, USA
Distance from station: ENE 19km
Actualización: 21/06/2021 06:50
NOT Current
Despejado
Despejado
 Viento del ONO
Viento: ONO 9 km/h
Temperatura: 18°C
Rocío: 12°C
Humedad: 68%
Barómetro: 1011.9 hPa
Clouds: Despejado
Visibility: 16 km
2021/06/21 04:50 KRHV 210450Z 29005KT 10SM SKC 18/12 A2988
 
KOAK - Oakland, California, USA
Distance from station: NNO 50km
Actualización: 21/06/2021 12:53
Cubierto
Cubierto
 Viento del NNO
Viento: NNO 7 km/h
Temperatura: 15°C
Rocío: 12°C
Humedad: 82%
Barómetro: 1012.2 hPa
Clouds: Cubierto
Visibility: 16 km
Cloud details: Cubierto 305 m
2021/06/21 10:53 KOAK 211053Z 34004KT 10SM OVC010 15/12 A2989 RMK AO2 SLP121 T01500122
KSQL - San Carlos Airpo, California, USA
Distance from station: NO 34km
Actualización: 21/06/2021 13:15
Cubierto
Cubierto
 Viento del calm
Viento: Calma
Temperatura: 16°C
Rocío: 13°C
Humedad: 83%
Barómetro: 1012.2 hPa
Clouds: Cubierto
Visibility: 16 km
Cloud details: Cubierto 457 m
2021/06/21 11:15 KSQL 211115Z AUTO 00000KT 10SM OVC015 16/13 A2989 RMK AO2
 
KSFO - San Francisco, California, USA
Distance from station: NO 49km
Actualización: 21/06/2021 12:56
Muy nuboso
Muy nuboso
 Viento del ONO
Viento: ONO 7 km/h
Temperatura: 16°C
Rocío: 11°C
Humedad: 72%
Barómetro: 1011.9 hPa
Clouds: Muy nuboso
Visibility: 16 km
Cloud details: Few Clouds 183 m
Muy nuboso 427 m
2021/06/21 10:56 KSFO 211056Z 29004KT 10SM FEW006 BKN014 16/11 A2988 RMK AO2 SLP118 T01610111
KE16 - San Martin, California, USA
Distance from station: ESE 43km
Actualización: 21/06/2021 13:15

 Viento del ESE
Viento: ESE 17 km/h
Temperatura: 14°C
Rocío: 12°C
Humedad: 88%
Barómetro: 1013.2 hPa
Visibility: 16 km
2021/06/21 11:15 KE16 211115Z AUTO 12009KT 10SM 14/12 A2992 RMK AO2 PWINO PNO
 
KWVI - Watsonville, California, USA
Distance from station: SSE 44km
Actualización: 21/06/2021 12:53
Cubierto
Cubierto
 Viento del OSO
Viento: OSO 6 km/h
Temperatura: 13°C
Rocío: 12°C
Humedad: 94%
Barómetro: 1013.2 hPa
Clouds: Cubierto
Visibility: 14 km
Cloud details: Cubierto 213 m
2021/06/21 10:53 KWVI 211053Z AUTO 24003KT 9SM OVC007 13/12 A2992 RMK AO2 SLP130 T01280122
KHAF - Half Moon Bay, California, USA
Distance from station: ONO 50km
Actualización: 21/06/2021 13:15
Cubierto
Cubierto
 Viento del SSE
Viento: SSE 11 km/h
Temperatura: 13°C
Rocío: 12°C
Humedad: 94%
Barómetro: 1012.9 hPa
Clouds: Cubierto
Visibility: 16 km
Cloud details: Cubierto 305 m
2021/06/21 11:15 KHAF 211115Z AUTO 16006KT 10SM OVC010 13/12 A2991 RMK AO2
 
KHWD - Hayward, California, USA
Distance from station: N 44km
Actualización: 21/06/2021 12:54
Cubierto
Cubierto
 Viento del NNO
Viento: NNO 9 km/h
Temperatura: 15°C
Rocío: 12°C
Humedad: 82%
Barómetro: 1011.9 hPa
Clouds: Cubierto
Visibility: 16 km
Cloud details: Cubierto 396 m
2021/06/21 10:54 KHWD 211054Z 34005KT 10SM OVC013 15/12 A2988 RMK AO2 SLP128 T01500122
KLVK - Livermore, California, USA
Distance from station: NNE 51km
Actualización: 21/06/2021 12:53
Despejado
Despejado
 Viento del ONO
Viento: ONO 13 km/h
Temperatura: 14°C
Rocío: 12°C
Humedad: 88%
Barómetro: 1011.5 hPa
Clouds: Despejado
Visibility: 16 km
2021/06/21 10:53 KLVK 211053Z AUTO 30007KT 10SM CLR 14/12 A2987 RMK AO2 SLP110 T01390117